sensor_id;sensor_type;location;lat;lon;timestamp;P1;durP1;ratioP1;P2;durP2;ratioP2
6426;SDS011;3246;42.664;23.308;2024-03-02T00:00:48;25.17;;;16.30;;
6426;SDS011;3246;42.664;23.308;2024-03-02T00:03:16;21.13;;;15.57;;
6426;SDS011;3246;42.664;23.308;2024-03-02T00:05:43;22.70;;;14.10;;
6426;SDS011;3246;42.664;23.308;2024-03-02T00:08:12;19.93;;;14.77;;
6426;SDS011;3246;42.664;23.308;2024-03-02T00:10:47;24.90;;;13.47;;
6426;SDS011;3246;42.664;23.308;2024-03-02T00:13:14;22.57;;;14.43;;
6426;SDS011;3246;42.664;23.308;2024-03-02T00:15:42;25.33;;;15.83;;
6426;SDS011;3246;42.664;23.308;2024-03-02T00:18:12;20.60;;;15.13;;
6426;SDS011;3246;42.664;23.308;2024-03-02T00:20:40;25.47;;;15.20;;
6426;SDS011;3246;42.664;23.308;2024-03-02T00:23:08;21.83;;;16.40;;
6426;SDS011;3246;42.664;23.308;2024-03-02T00:25:39;24.03;;;14.93;;
6426;SDS011;3246;42.664;23.308;2024-03-02T00:28:13;23.73;;;14.43;;
6426;SDS011;3246;42.664;23.308;2024-03-02T00:33:30;19.73;;;13.97;;
6426;SDS011;3246;42.664;23.308;2024-03-02T00:35:58;18.77;;;13.27;;
6426;SDS011;3246;42.664;23.308;2024-03-02T00:38:26;19.83;;;13.40;;
6426;SDS011;3246;42.664;23.308;2024-03-02T00:40:55;20.87;;;12.73;;
6426;SDS011;3246;42.664;23.308;2024-03-02T00:43:41;20.23;;;13.70;;
6426;SDS011;3246;42.664;23.308;2024-03-02T00:46:10;28.37;;;13.70;;
6426;SDS011;3246;42.664;23.308;2024-03-02T00:48:38;19.73;;;11.60;;
6426;SDS011;3246;42.664;23.308;2024-03-02T00:51:05;20.03;;;12.27;;
6426;SDS011;3246;42.664;23.308;2024-03-02T00:53:32;18.70;;;13.97;;
6426;SDS011;3246;42.664;23.308;2024-03-02T00:56:01;22.50;;;13.70;;
6426;SDS011;3246;42.664;23.308;2024-03-02T00:58:28;22.10;;;13.37;;
6426;SDS011;3246;42.664;23.308;2024-03-02T01:00:55;19.53;;;12.50;;
6426;SDS011;3246;42.664;23.308;2024-03-02T01:03:22;20.17;;;13.33;;
6426;SDS011;3246;42.664;23.308;2024-03-02T01:05:49;17.43;;;11.87;;
6426;SDS011;3246;42.664;23.308;2024-03-02T01:08:16;16.03;;;12.10;;
6426;SDS011;3246;42.664;23.308;2024-03-02T01:10:43;19.13;;;11.97;;
6426;SDS011;3246;42.664;23.308;2024-03-02T01:13:11;20.03;;;12.73;;
6426;SDS011;3246;42.664;23.308;2024-03-02T01:15:38;16.20;;;12.53;;
6426;SDS011;3246;42.664;23.308;2024-03-02T01:18:05;15.77;;;11.17;;
6426;SDS011;3246;42.664;23.308;2024-03-02T01:20:32;18.67;;;13.33;;
6426;SDS011;3246;42.664;23.308;2024-03-02T01:22:58;19.23;;;12.27;;
6426;SDS011;3246;42.664;23.308;2024-03-02T01:25:25;17.70;;;11.50;;
6426;SDS011;3246;42.664;23.308;2024-03-02T01:27:52;21.80;;;12.73;;
6426;SDS011;3246;42.664;23.308;2024-03-02T01:30:20;16.30;;;11.27;;
6426;SDS011;3246;42.664;23.308;2024-03-02T01:32:47;18.43;;;11.60;;
6426;SDS011;3246;42.664;23.308;2024-03-02T01:35:14;18.03;;;12.80;;
6426;SDS011;3246;42.664;23.308;2024-03-02T01:37:41;19.53;;;14.07;;
6426;SDS011;3246;42.664;23.308;2024-03-02T01:40:08;19.33;;;13.97;;
6426;SDS011;3246;42.664;23.308;2024-03-02T01:42:36;20.60;;;13.27;;
6426;SDS011;3246;42.664;23.308;2024-03-02T01:45:04;21.23;;;12.97;;
6426;SDS011;3246;42.664;23.308;2024-03-02T01:47:34;24.93;;;12.73;;
6426;SDS011;3246;42.664;23.308;2024-03-02T01:50:00;22.63;;;13.47;;
6426;SDS011;3246;42.664;23.308;2024-03-02T01:52:27;17.63;;;13.57;;
6426;SDS011;3246;42.664;23.308;2024-03-02T01:54:54;23.60;;;15.10;;
6426;SDS011;3246;42.664;23.308;2024-03-02T01:57:21;18.70;;;13.97;;
6426;SDS011;3246;42.664;23.308;2024-03-02T01:59:48;21.57;;;13.27;;
6426;SDS011;3246;42.664;23.308;2024-03-02T02:02:15;28.53;;;14.90;;
6426;SDS011;3246;42.664;23.308;2024-03-02T02:04:44;22.07;;;14.37;;
6426;SDS011;3246;42.664;23.308;2024-03-02T02:07:11;26.27;;;14.77;;
6426;SDS011;3246;42.664;23.308;2024-03-02T02:09:39;28.20;;;15.43;;
6426;SDS011;3246;42.664;23.308;2024-03-02T02:12:06;22.93;;;14.90;;
6426;SDS011;3246;42.664;23.308;2024-03-02T02:14:33;27.50;;;14.07;;
6426;SDS011;3246;42.664;23.308;2024-03-02T02:17:00;23.27;;;15.73;;
6426;SDS011;3246;42.664;23.308;2024-03-02T02:19:27;24.57;;;14.77;;
6426;SDS011;3246;42.664;23.308;2024-03-02T02:21:55;24.57;;;14.83;;
6426;SDS011;3246;42.664;23.308;2024-03-02T02:24:22;22.17;;;15.37;;
6426;SDS011;3246;42.664;23.308;2024-03-02T02:26:49;24.73;;;15.70;;
6426;SDS011;3246;42.664;23.308;2024-03-02T02:29:15;21.93;;;13.97;;
6426;SDS011;3246;42.664;23.308;2024-03-02T02:31:42;23.20;;;15.13;;
6426;SDS011;3246;42.664;23.308;2024-03-02T02:34:09;28.80;;;16.47;;
6426;SDS011;3246;42.664;23.308;2024-03-02T02:36:36;24.10;;;17.07;;
6426;SDS011;3246;42.664;23.308;2024-03-02T02:39:08;22.37;;;15.90;;
6426;SDS011;3246;42.664;23.308;2024-03-02T02:41:37;27.70;;;16.50;;
6426;SDS011;3246;42.664;23.308;2024-03-02T02:44:04;27.50;;;17.70;;
6426;SDS011;3246;42.664;23.308;2024-03-02T02:46:31;22.93;;;15.77;;
6426;SDS011;3246;42.664;23.308;2024-03-02T02:48:58;23.07;;;16.13;;
6426;SDS011;3246;42.664;23.308;2024-03-02T02:51:25;27.80;;;18.17;;
6426;SDS011;3246;42.664;23.308;2024-03-02T02:53:52;23.30;;;15.73;;
6426;SDS011;3246;42.664;23.308;2024-03-02T02:56:20;25.60;;;15.60;;
6426;SDS011;3246;42.664;23.308;2024-03-02T02:58:47;28.87;;;16.67;;
6426;SDS011;3246;42.664;23.308;2024-03-02T03:01:14;28.17;;;18.37;;
6426;SDS011;3246;42.664;23.308;2024-03-02T03:03:42;26.37;;;17.40;;
6426;SDS011;3246;42.664;23.308;2024-03-02T03:06:09;27.33;;;18.13;;
6426;SDS011;3246;42.664;23.308;2024-03-02T03:08:35;25.97;;;16.87;;
6426;SDS011;3246;42.664;23.308;2024-03-02T03:11:02;25.23;;;17.43;;
6426;SDS011;3246;42.664;23.308;2024-03-02T03:13:31;24.70;;;17.83;;
6426;SDS011;3246;42.664;23.308;2024-03-02T03:15:58;26.07;;;16.73;;
6426;SDS011;3246;42.664;23.308;2024-03-02T03:18:25;28.10;;;17.67;;
6426;SDS011;3246;42.664;23.308;2024-03-02T03:20:51;31.40;;;17.63;;
6426;SDS011;3246;42.664;23.308;2024-03-02T03:23:18;29.23;;;18.67;;
6426;SDS011;3246;42.664;23.308;2024-03-02T03:25:46;34.00;;;20.53;;
6426;SDS011;3246;42.664;23.308;2024-03-02T03:28:12;29.43;;;20.63;;
6426;SDS011;3246;42.664;23.308;2024-03-02T03:30:40;32.67;;;18.77;;
6426;SDS011;3246;42.664;23.308;2024-03-02T03:33:08;29.07;;;19.60;;
6426;SDS011;3246;42.664;23.308;2024-03-02T03:35:35;27.63;;;18.47;;
6426;SDS011;3246;42.664;23.308;2024-03-02T03:38:03;32.77;;;20.03;;
6426;SDS011;3246;42.664;23.308;2024-03-02T03:40:30;27.10;;;19.47;;
6426;SDS011;3246;42.664;23.308;2024-03-02T03:42:57;35.00;;;20.80;;
6426;SDS011;3246;42.664;23.308;2024-03-02T03:45:25;42.40;;;21.43;;
6426;SDS011;3246;42.664;23.308;2024-03-02T03:47:53;37.27;;;23.40;;
6426;SDS011;3246;42.664;23.308;2024-03-02T03:50:20;32.93;;;23.07;;
6426;SDS011;3246;42.664;23.308;2024-03-02T03:52:47;30.17;;;21.73;;
6426;SDS011;3246;42.664;23.308;2024-03-02T03:55:14;36.17;;;21.77;;
6426;SDS011;3246;42.664;23.308;2024-03-02T03:57:41;34.60;;;23.07;;
6426;SDS011;3246;42.664;23.308;2024-03-02T04:00:08;40.53;;;23.00;;
6426;SDS011;3246;42.664;23.308;2024-03-02T04:02:37;39.93;;;22.67;;
6426;SDS011;3246;42.664;23.308;2024-03-02T04:05:05;37.13;;;24.03;;
6426;SDS011;3246;42.664;23.308;2024-03-02T04:07:35;32.63;;;22.40;;
6426;SDS011;3246;42.664;23.308;2024-03-02T04:10:08;34.77;;;23.73;;
6426;SDS011;3246;42.664;23.308;2024-03-02T04:12:37;32.87;;;22.10;;
6426;SDS011;3246;42.664;23.308;2024-03-02T04:15:05;36.47;;;21.87;;
6426;SDS011;3246;42.664;23.308;2024-03-02T04:17:32;37.43;;;23.07;;
6426;SDS011;3246;42.664;23.308;2024-03-02T04:20:00;34.03;;;23.67;;
6426;SDS011;3246;42.664;23.308;2024-03-02T04:22:32;41.23;;;24.27;;
6426;SDS011;3246;42.664;23.308;2024-03-02T04:25:00;43.53;;;25.83;;
6426;SDS011;3246;42.664;23.308;2024-03-02T04:27:29;38.93;;;22.70;;
6426;SDS011;3246;42.664;23.308;2024-03-02T04:29:56;42.40;;;26.63;;
6426;SDS011;3246;42.664;23.308;2024-03-02T04:32:23;38.87;;;25.17;;
6426;SDS011;3246;42.664;23.308;2024-03-02T04:34:50;41.17;;;26.13;;
6426;SDS011;3246;42.664;23.308;2024-03-02T04:37:17;39.37;;;25.20;;
6426;SDS011;3246;42.664;23.308;2024-03-02T04:39:45;39.77;;;25.23;;
6426;SDS011;3246;42.664;23.308;2024-03-02T04:42:10;39.50;;;24.83;;
6426;SDS011;3246;42.664;23.308;2024-03-02T04:44:37;35.53;;;24.17;;
6426;SDS011;3246;42.664;23.308;2024-03-02T04:47:04;41.47;;;24.73;;
6426;SDS011;3246;42.664;23.308;2024-03-02T04:49:31;43.23;;;26.17;;
6426;SDS011;3246;42.664;23.308;2024-03-02T04:51:58;37.30;;;24.43;;
6426;SDS011;3246;42.664;23.308;2024-03-02T04:54:25;43.87;;;28.10;;
6426;SDS011;3246;42.664;23.308;2024-03-02T04:56:53;41.00;;;27.90;;
6426;SDS011;3246;42.664;23.308;2024-03-02T04:59:20;48.33;;;30.43;;
6426;SDS011;3246;42.664;23.308;2024-03-02T05:01:47;45.33;;;29.23;;
6426;SDS011;3246;42.664;23.308;2024-03-02T05:04:13;47.17;;;27.00;;
6426;SDS011;3246;42.664;23.308;2024-03-02T05:06:40;41.77;;;26.83;;
6426;SDS011;3246;42.664;23.308;2024-03-02T05:09:07;40.60;;;25.77;;
6426;SDS011;3246;42.664;23.308;2024-03-02T05:11:34;35.43;;;25.60;;
6426;SDS011;3246;42.664;23.308;2024-03-02T05:14:36;38.90;;;23.47;;
6426;SDS011;3246;42.664;23.308;2024-03-02T05:17:03;44.27;;;26.97;;
6426;SDS011;3246;42.664;23.308;2024-03-02T05:19:30;40.87;;;26.00;;
6426;SDS011;3246;42.664;23.308;2024-03-02T05:21:57;47.90;;;29.73;;
6426;SDS011;3246;42.664;23.308;2024-03-02T05:24:24;46.27;;;28.17;;
6426;SDS011;3246;42.664;23.308;2024-03-02T05:26:52;45.50;;;29.60;;
6426;SDS011;3246;42.664;23.308;2024-03-02T05:29:19;49.33;;;30.87;;
6426;SDS011;3246;42.664;23.308;2024-03-02T05:31:47;49.03;;;33.47;;
6426;SDS011;3246;42.664;23.308;2024-03-02T05:34:14;51.80;;;30.27;;
6426;SDS011;3246;42.664;23.308;2024-03-02T05:36:40;53.13;;;31.40;;
6426;SDS011;3246;42.664;23.308;2024-03-02T05:39:07;48.43;;;31.27;;
6426;SDS011;3246;42.664;23.308;2024-03-02T05:41:35;47.33;;;31.13;;
6426;SDS011;3246;42.664;23.308;2024-03-02T05:44:03;50.07;;;30.07;;
6426;SDS011;3246;42.664;23.308;2024-03-02T05:46:30;52.13;;;32.03;;
6426;SDS011;3246;42.664;23.308;2024-03-02T05:48:58;63.67;;;33.50;;
6426;SDS011;3246;42.664;23.308;2024-03-02T05:51:25;53.53;;;29.77;;
6426;SDS011;3246;42.664;23.308;2024-03-02T05:53:52;45.33;;;31.33;;
6426;SDS011;3246;42.664;23.308;2024-03-02T05:56:19;45.17;;;30.10;;
6426;SDS011;3246;42.664;23.308;2024-03-02T05:58:46;45.40;;;27.47;;
6426;SDS011;3246;42.664;23.308;2024-03-02T06:01:23;47.80;;;29.13;;
6426;SDS011;3246;42.664;23.308;2024-03-02T06:03:53;41.93;;;27.30;;
6426;SDS011;3246;42.664;23.308;2024-03-02T06:06:22;45.53;;;27.00;;
6426;SDS011;3246;42.664;23.308;2024-03-02T06:08:49;49.67;;;29.27;;
6426;SDS011;3246;42.664;23.308;2024-03-02T06:11:16;46.40;;;29.33;;
6426;SDS011;3246;42.664;23.308;2024-03-02T06:13:43;50.60;;;28.93;;
6426;SDS011;3246;42.664;23.308;2024-03-02T06:16:10;51.50;;;29.67;;
6426;SDS011;3246;42.664;23.308;2024-03-02T06:18:37;46.03;;;30.03;;
6426;SDS011;3246;42.664;23.308;2024-03-02T06:21:04;44.30;;;27.93;;
6426;SDS011;3246;42.664;23.308;2024-03-02T06:23:32;44.87;;;29.00;;
6426;SDS011;3246;42.664;23.308;2024-03-02T06:26:00;38.77;;;25.97;;
6426;SDS011;3246;42.664;23.308;2024-03-02T06:28:27;45.40;;;28.03;;
6426;SDS011;3246;42.664;23.308;2024-03-02T06:30:54;45.80;;;28.40;;
6426;SDS011;3246;42.664;23.308;2024-03-02T06:33:21;41.50;;;24.17;;
6426;SDS011;3246;42.664;23.308;2024-03-02T06:35:47;33.03;;;21.33;;
6426;SDS011;3246;42.664;23.308;2024-03-02T06:38:15;36.70;;;21.47;;
6426;SDS011;3246;42.664;23.308;2024-03-02T06:40:43;33.00;;;19.80;;
6426;SDS011;3246;42.664;23.308;2024-03-02T06:43:10;31.30;;;17.37;;
6426;SDS011;3246;42.664;23.308;2024-03-02T06:45:37;33.13;;;19.73;;
6426;SDS011;3246;42.664;23.308;2024-03-02T06:48:04;31.23;;;19.57;;
6426;SDS011;3246;42.664;23.308;2024-03-02T06:50:31;34.93;;;20.57;;
6426;SDS011;3246;42.664;23.308;2024-03-02T06:52:58;35.43;;;20.60;;
6426;SDS011;3246;42.664;23.308;2024-03-02T06:55:25;29.30;;;20.27;;
6426;SDS011;3246;42.664;23.308;2024-03-02T06:57:53;36.97;;;22.90;;
6426;SDS011;3246;42.664;23.308;2024-03-02T07:00:20;32.73;;;21.83;;
6426;SDS011;3246;42.664;23.308;2024-03-02T07:02:47;47.07;;;22.20;;
6426;SDS011;3246;42.664;23.308;2024-03-02T07:05:14;36.50;;;22.13;;
6426;SDS011;3246;42.664;23.308;2024-03-02T07:07:41;34.53;;;20.17;;
6426;SDS011;3246;42.664;23.308;2024-03-02T07:10:07;34.43;;;20.93;;
6426;SDS011;3246;42.664;23.308;2024-03-02T07:12:34;35.30;;;21.10;;
6426;SDS011;3246;42.664;23.308;2024-03-02T07:15:03;28.37;;;19.97;;
6426;SDS011;3246;42.664;23.308;2024-03-02T07:17:48;36.97;;;20.00;;
6426;SDS011;3246;42.664;23.308;2024-03-02T07:20:15;32.27;;;21.70;;
6426;SDS011;3246;42.664;23.308;2024-03-02T07:22:42;33.87;;;20.47;;
6426;SDS011;3246;42.664;23.308;2024-03-02T07:25:09;32.73;;;20.80;;
6426;SDS011;3246;42.664;23.308;2024-03-02T07:27:36;35.93;;;20.73;;
6426;SDS011;3246;42.664;23.308;2024-03-02T07:30:04;29.03;;;18.60;;
6426;SDS011;3246;42.664;23.308;2024-03-02T07:32:32;33.80;;;20.87;;
6426;SDS011;3246;42.664;23.308;2024-03-02T07:34:58;36.47;;;22.07;;
6426;SDS011;3246;42.664;23.308;2024-03-02T07:37:26;33.50;;;20.10;;
6426;SDS011;3246;42.664;23.308;2024-03-02T07:39:53;32.57;;;19.23;;
6426;SDS011;3246;42.664;23.308;2024-03-02T07:42:20;31.17;;;19.83;;
6426;SDS011;3246;42.664;23.308;2024-03-02T07:44:47;31.03;;;19.43;;
6426;SDS011;3246;42.664;23.308;2024-03-02T07:47:15;39.97;;;21.03;;
6426;SDS011;3246;42.664;23.308;2024-03-02T07:49:42;38.00;;;22.53;;
6426;SDS011;3246;42.664;23.308;2024-03-02T07:52:11;32.13;;;19.93;;
6426;SDS011;3246;42.664;23.308;2024-03-02T07:54:38;36.00;;;21.57;;
6426;SDS011;3246;42.664;23.308;2024-03-02T07:57:04;33.10;;;20.10;;
6426;SDS011;3246;42.664;23.308;2024-03-02T07:59:31;31.73;;;20.77;;
6426;SDS011;3246;42.664;23.308;2024-03-02T08:01:58;30.37;;;18.90;;
6426;SDS011;3246;42.664;23.308;2024-03-02T08:04:27;34.47;;;19.97;;
6426;SDS011;3246;42.664;23.308;2024-03-02T08:06:54;40.23;;;21.77;;
6426;SDS011;3246;42.664;23.308;2024-03-02T08:09:21;39.20;;;21.10;;
6426;SDS011;3246;42.664;23.308;2024-03-02T08:11:47;36.57;;;20.60;;
6426;SDS011;3246;42.664;23.308;2024-03-02T08:14:14;34.07;;;20.67;;
6426;SDS011;3246;42.664;23.308;2024-03-02T08:16:41;33.13;;;20.27;;
6426;SDS011;3246;42.664;23.308;2024-03-02T08:19:08;32.60;;;20.63;;
6426;SDS011;3246;42.664;23.308;2024-03-02T08:21:37;34.57;;;19.83;;
6426;SDS011;3246;42.664;23.308;2024-03-02T08:24:04;37.20;;;20.80;;
6426;SDS011;3246;42.664;23.308;2024-03-02T08:26:31;35.10;;;20.20;;
6426;SDS011;3246;42.664;23.308;2024-03-02T08:28:58;35.07;;;21.43;;
6426;SDS011;3246;42.664;23.308;2024-03-02T08:31:26;35.97;;;20.93;;
6426;SDS011;3246;42.664;23.308;2024-03-02T08:33:53;32.17;;;19.53;;
6426;SDS011;3246;42.664;23.308;2024-03-02T08:36:20;32.37;;;18.90;;
6426;SDS011;3246;42.664;23.308;2024-03-02T08:38:49;31.63;;;20.50;;
6426;SDS011;3246;42.664;23.308;2024-03-02T08:41:16;35.47;;;19.93;;
6426;SDS011;3246;42.664;23.308;2024-03-02T08:43:43;35.57;;;19.70;;
6426;SDS011;3246;42.664;23.308;2024-03-02T08:46:10;29.37;;;19.43;;
6426;SDS011;3246;42.664;23.308;2024-03-02T08:48:37;37.90;;;20.53;;
6426;SDS011;3246;42.664;23.308;2024-03-02T08:51:04;34.07;;;18.07;;
6426;SDS011;3246;42.664;23.308;2024-03-02T08:53:33;30.73;;;18.80;;
6426;SDS011;3246;42.664;23.308;2024-03-02T08:56:01;29.03;;;19.13;;
6426;SDS011;3246;42.664;23.308;2024-03-02T08:58:30;34.87;;;19.40;;
6426;SDS011;3246;42.664;23.308;2024-03-02T09:00:57;29.37;;;19.23;;
6426;SDS011;3246;42.664;23.308;2024-03-02T09:03:24;29.50;;;18.80;;
6426;SDS011;3246;42.664;23.308;2024-03-02T09:05:51;31.80;;;18.23;;
6426;SDS011;3246;42.664;23.308;2024-03-02T09:08:18;36.67;;;19.03;;
6426;SDS011;3246;42.664;23.308;2024-03-02T09:10:44;39.37;;;20.67;;
6426;SDS011;3246;42.664;23.308;2024-03-02T09:13:13;51.77;;;29.23;;
6426;SDS011;3246;42.664;23.308;2024-03-02T09:15:40;30.50;;;19.60;;
6426;SDS011;3246;42.664;23.308;2024-03-02T09:18:06;31.50;;;19.83;;
6426;SDS011;3246;42.664;23.308;2024-03-02T09:20:33;31.27;;;18.77;;
6426;SDS011;3246;42.664;23.308;2024-03-02T09:23:00;31.60;;;18.70;;
6426;SDS011;3246;42.664;23.308;2024-03-02T09:25:27;29.13;;;18.77;;
6426;SDS011;3246;42.664;23.308;2024-03-02T09:27:54;31.73;;;19.23;;
6426;SDS011;3246;42.664;23.308;2024-03-02T09:30:22;32.83;;;20.43;;
6426;SDS011;3246;42.664;23.308;2024-03-02T09:32:49;32.23;;;19.53;;
6426;SDS011;3246;42.664;23.308;2024-03-02T09:35:15;33.30;;;20.47;;
6426;SDS011;3246;42.664;23.308;2024-03-02T09:37:43;38.50;;;21.90;;
6426;SDS011;3246;42.664;23.308;2024-03-02T09:40:10;32.93;;;21.47;;
6426;SDS011;3246;42.664;23.308;2024-03-02T09:42:37;31.43;;;20.17;;
6426;SDS011;3246;42.664;23.308;2024-03-02T09:45:05;35.53;;;19.93;;
6426;SDS011;3246;42.664;23.308;2024-03-02T09:47:34;31.93;;;19.13;;
6426;SDS011;3246;42.664;23.308;2024-03-02T09:50:01;26.97;;;17.57;;
6426;SDS011;3246;42.664;23.308;2024-03-02T09:52:29;24.70;;;17.27;;
6426;SDS011;3246;42.664;23.308;2024-03-02T09:54:57;30.13;;;18.00;;
6426;SDS011;3246;42.664;23.308;2024-03-02T09:57:24;34.10;;;19.83;;
6426;SDS011;3246;42.664;23.308;2024-03-02T09:59:51;26.83;;;18.17;;
6426;SDS011;3246;42.664;23.308;2024-03-02T10:02:17;28.40;;;18.27;;
6426;SDS011;3246;42.664;23.308;2024-03-02T10:04:48;32.40;;;18.97;;
6426;SDS011;3246;42.664;23.308;2024-03-02T10:07:15;28.47;;;18.43;;
6426;SDS011;3246;42.664;23.308;2024-03-02T10:09:44;26.27;;;18.30;;
6426;SDS011;3246;42.664;23.308;2024-03-02T10:12:12;28.73;;;20.10;;
6426;SDS011;3246;42.664;23.308;2024-03-02T10:14:40;31.70;;;19.77;;
6426;SDS011;3246;42.664;23.308;2024-03-02T10:17:07;32.37;;;20.53;;
6426;SDS011;3246;42.664;23.308;2024-03-02T10:19:35;37.07;;;21.87;;
6426;SDS011;3246;42.664;23.308;2024-03-02T10:22:04;33.17;;;21.63;;
6426;SDS011;3246;42.664;23.308;2024-03-02T10:24:36;36.40;;;21.77;;
6426;SDS011;3246;42.664;23.308;2024-03-02T10:27:07;34.77;;;20.27;;
6426;SDS011;3246;42.664;23.308;2024-03-02T10:29:39;31.70;;;20.97;;
6426;SDS011;3246;42.664;23.308;2024-03-02T10:32:08;37.63;;;22.33;;
6426;SDS011;3246;42.664;23.308;2024-03-02T10:34:36;37.43;;;23.10;;
6426;SDS011;3246;42.664;23.308;2024-03-02T10:37:04;35.67;;;22.23;;
6426;SDS011;3246;42.664;23.308;2024-03-02T10:39:31;38.83;;;23.03;;
6426;SDS011;3246;42.664;23.308;2024-03-02T10:42:00;37.37;;;20.37;;
6426;SDS011;3246;42.664;23.308;2024-03-02T10:44:29;39.07;;;22.03;;
6426;SDS011;3246;42.664;23.308;2024-03-02T10:46:57;43.30;;;24.13;;
6426;SDS011;3246;42.664;23.308;2024-03-02T10:49:26;39.20;;;21.67;;
6426;SDS011;3246;42.664;23.308;2024-03-02T10:51:55;34.70;;;22.00;;
6426;SDS011;3246;42.664;23.308;2024-03-02T10:54:23;42.17;;;23.90;;
6426;SDS011;3246;42.664;23.308;2024-03-02T10:56:54;34.57;;;21.63;;
6426;SDS011;3246;42.664;23.308;2024-03-02T10:59:24;34.37;;;21.37;;
6426;SDS011;3246;42.664;23.308;2024-03-02T11:01:56;33.20;;;21.00;;
6426;SDS011;3246;42.664;23.308;2024-03-02T11:04:25;33.07;;;21.37;;
6426;SDS011;3246;42.664;23.308;2024-03-02T11:06:54;35.00;;;19.60;;
6426;SDS011;3246;42.664;23.308;2024-03-02T11:09:29;31.30;;;19.20;;
6426;SDS011;3246;42.664;23.308;2024-03-02T11:12:00;36.97;;;21.20;;
6426;SDS011;3246;42.664;23.308;2024-03-02T11:14:30;35.27;;;20.67;;
6426;SDS011;3246;42.664;23.308;2024-03-02T11:16:58;32.87;;;20.13;;
6426;SDS011;3246;42.664;23.308;2024-03-02T11:19:28;31.47;;;19.57;;
6426;SDS011;3246;42.664;23.308;2024-03-02T11:21:57;37.00;;;18.63;;
6426;SDS011;3246;42.664;23.308;2024-03-02T11:24:30;35.23;;;19.47;;
6426;SDS011;3246;42.664;23.308;2024-03-02T11:27:00;29.53;;;18.03;;
6426;SDS011;3246;42.664;23.308;2024-03-02T11:32:20;36.23;;;20.23;;
6426;SDS011;3246;42.664;23.308;2024-03-02T11:34:49;31.70;;;19.17;;
6426;SDS011;3246;42.664;23.308;2024-03-02T11:37:17;29.63;;;20.47;;
6426;SDS011;3246;42.664;23.308;2024-03-02T11:39:47;30.67;;;19.63;;
6426;SDS011;3246;42.664;23.308;2024-03-02T11:42:15;33.20;;;19.00;;
6426;SDS011;3246;42.664;23.308;2024-03-02T11:44:44;26.17;;;17.37;;
6426;SDS011;3246;42.664;23.308;2024-03-02T11:47:12;27.83;;;18.20;;
6426;SDS011;3246;42.664;23.308;2024-03-02T11:49:41;26.90;;;18.50;;
6426;SDS011;3246;42.664;23.308;2024-03-02T11:52:10;31.10;;;18.83;;
6426;SDS011;3246;42.664;23.308;2024-03-02T11:54:38;49.20;;;18.30;;
6426;SDS011;3246;42.664;23.308;2024-03-02T11:57:08;29.23;;;18.60;;
6426;SDS011;3246;42.664;23.308;2024-03-02T11:59:35;29.57;;;19.43;;
6426;SDS011;3246;42.664;23.308;2024-03-02T12:02:01;30.67;;;19.20;;
6426;SDS011;3246;42.664;23.308;2024-03-02T12:04:29;29.53;;;17.87;;
6426;SDS011;3246;42.664;23.308;2024-03-02T12:06:57;27.03;;;18.43;;
6426;SDS011;3246;42.664;23.308;2024-03-02T12:09:26;29.93;;;19.20;;
6426;SDS011;3246;42.664;23.308;2024-03-02T12:12:03;25.50;;;18.03;;
6426;SDS011;3246;42.664;23.308;2024-03-02T12:14:32;29.50;;;19.97;;
6426;SDS011;3246;42.664;23.308;2024-03-02T12:17:02;27.77;;;18.67;;
6426;SDS011;3246;42.664;23.308;2024-03-02T12:19:29;32.77;;;19.37;;
6426;SDS011;3246;42.664;23.308;2024-03-02T12:21:56;29.17;;;20.10;;
6426;SDS011;3246;42.664;23.308;2024-03-02T12:24:24;30.17;;;20.63;;
6426;SDS011;3246;42.664;23.308;2024-03-02T12:26:52;26.07;;;18.87;;
6426;SDS011;3246;42.664;23.308;2024-03-02T12:29:20;32.60;;;18.73;;
6426;SDS011;3246;42.664;23.308;2024-03-02T12:31:49;27.20;;;18.70;;
6426;SDS011;3246;42.664;23.308;2024-03-02T12:34:17;26.33;;;18.27;;
6426;SDS011;3246;42.664;23.308;2024-03-02T12:36:48;35.83;;;20.47;;
6426;SDS011;3246;42.664;23.308;2024-03-02T12:39:18;36.17;;;20.87;;
6426;SDS011;3246;42.664;23.308;2024-03-02T12:41:45;29.60;;;18.70;;
6426;SDS011;3246;42.664;23.308;2024-03-02T12:44:12;28.27;;;18.33;;
6426;SDS011;3246;42.664;23.308;2024-03-02T12:46:39;28.70;;;17.13;;
6426;SDS011;3246;42.664;23.308;2024-03-02T12:49:08;29.63;;;17.60;;
6426;SDS011;3246;42.664;23.308;2024-03-02T12:51:37;26.83;;;17.03;;
6426;SDS011;3246;42.664;23.308;2024-03-02T12:54:05;27.30;;;18.10;;
6426;SDS011;3246;42.664;23.308;2024-03-02T12:56:32;27.07;;;18.50;;
6426;SDS011;3246;42.664;23.308;2024-03-02T12:58:59;28.90;;;19.80;;
6426;SDS011;3246;42.664;23.308;2024-03-02T13:01:26;32.00;;;21.53;;
6426;SDS011;3246;42.664;23.308;2024-03-02T13:03:53;25.00;;;18.05;;
6426;SDS011;3246;42.664;23.308;2024-03-02T13:06:23;28.70;;;17.93;;
6426;SDS011;3246;42.664;23.308;2024-03-02T13:08:53;24.50;;;17.43;;
6426;SDS011;3246;42.664;23.308;2024-03-02T13:11:20;27.10;;;18.60;;
6426;SDS011;3246;42.664;23.308;2024-03-02T13:13:47;28.03;;;21.07;;
6426;SDS011;3246;42.664;23.308;2024-03-02T13:16:14;29.90;;;21.93;;
6426;SDS011;3246;42.664;23.308;2024-03-02T13:18:44;32.15;;;20.63;;
6426;SDS011;3246;42.664;23.308;2024-03-02T13:21:11;25.60;;;17.63;;
6426;SDS011;3246;42.664;23.308;2024-03-02T13:23:39;28.90;;;19.03;;
6426;SDS011;3246;42.664;23.308;2024-03-02T13:26:06;25.77;;;16.40;;
6426;SDS011;3246;42.664;23.308;2024-03-02T13:28:35;27.92;;;16.85;;
6426;SDS011;3246;42.664;23.308;2024-03-02T13:31:03;27.63;;;16.98;;
6426;SDS011;3246;42.664;23.308;2024-03-02T13:33:31;25.90;;;16.63;;
6426;SDS011;3246;42.664;23.308;2024-03-02T13:35:58;26.98;;;17.95;;
6426;SDS011;3246;42.664;23.308;2024-03-02T13:38:24;24.50;;;17.30;;
6426;SDS011;3246;42.664;23.308;2024-03-02T13:40:53;23.47;;;17.50;;
6426;SDS011;3246;42.664;23.308;2024-03-02T13:43:20;23.85;;;18.83;;
6426;SDS011;3246;42.664;23.308;2024-03-02T13:45:48;31.05;;;19.13;;
6426;SDS011;3246;42.664;23.308;2024-03-02T13:48:17;27.17;;;18.83;;
6426;SDS011;3246;42.664;23.308;2024-03-02T13:50:44;28.53;;;19.30;;
6426;SDS011;3246;42.664;23.308;2024-03-02T13:53:11;24.27;;;18.35;;
6426;SDS011;3246;42.664;23.308;2024-03-02T13:55:38;29.23;;;19.17;;
6426;SDS011;3246;42.664;23.308;2024-03-02T13:58:08;23.77;;;17.90;;
6426;SDS011;3246;42.664;23.308;2024-03-02T14:00:35;23.90;;;16.53;;
6426;SDS011;3246;42.664;23.308;2024-03-02T14:03:03;24.90;;;18.38;;
6426;SDS011;3246;42.664;23.308;2024-03-02T14:05:32;31.30;;;19.60;;
6426;SDS011;3246;42.664;23.308;2024-03-02T14:07:59;29.60;;;19.90;;
6426;SDS011;3246;42.664;23.308;2024-03-02T14:10:26;41.72;;;26.52;;
6426;SDS011;3246;42.664;23.308;2024-03-02T14:12:54;37.88;;;22.92;;
6426;SDS011;3246;42.664;23.308;2024-03-02T14:15:23;32.92;;;21.50;;
6426;SDS011;3246;42.664;23.308;2024-03-02T14:17:50;25.88;;;18.33;;
6426;SDS011;3246;42.664;23.308;2024-03-02T14:20:16;22.85;;;17.25;;
6426;SDS011;3246;42.664;23.308;2024-03-02T14:22:47;26.33;;;18.50;;
6426;SDS011;3246;42.664;23.308;2024-03-02T14:25:14;26.53;;;19.73;;
6426;SDS011;3246;42.664;23.308;2024-03-02T14:27:41;33.50;;;20.00;;
6426;SDS011;3246;42.664;23.308;2024-03-02T14:30:08;31.95;;;22.10;;
6426;SDS011;3246;42.664;23.308;2024-03-02T14:32:37;72.95;;;41.60;;
6426;SDS011;3246;42.664;23.308;2024-03-02T14:35:04;90.25;;;49.67;;
6426;SDS011;3246;42.664;23.308;2024-03-02T14:37:35;63.40;;;38.95;;
6426;SDS011;3246;42.664;23.308;2024-03-02T14:40:02;43.03;;;30.20;;
6426;SDS011;3246;42.664;23.308;2024-03-02T14:42:31;31.92;;;23.00;;